Time;durP1;ratioP1;P1;durP2;ratioP2;P2;SDS_P1;SDS_P2;PMS_P1;PMS_P2;Temp;Humidity;BMP_temperature;BMP_pressure;BME280_temperature;BME280_humidity;BME280_pressure;Samples;Min_cycle;Max_cycle;Signal;HPM_P1;HPM_P2
2022/09/28 00:01:21;;;;;;;8.65;4.18;;;;;;;17.40;77.33;98302.97;5010766;28;20030;-81
2022/09/28 00:03:48;;;;;;;5.07;3.78;;;;;;;17.50;76.57;98306.97;5012286;28;20061;-81
2022/09/28 00:06:19;;;;;;;5.13;4.20;;;;;;;17.49;76.12;98296.84;5017775;28;20034;-81
2022/09/28 00:08:45;;;;;;;8.52;4.70;;;;;;;17.22;75.93;98290.94;5030120;28;20083;-80
2022/09/28 00:11:14;;;;;;;4.97;4.43;;;;;;;16.92;77.66;98290.19;5031715;28;20032;-81
2022/09/28 00:13:41;;;;;;;7.68;4.32;;;;;;;17.03;77.98;98281.69;5026806;28;20412;-81
2022/09/28 00:16:13;;;;;;;6.47;4.53;;;;;;;17.23;77.07;98298.19;5010592;28;20025;-81
2022/09/28 00:18:39;;;;;;;6.07;4.50;;;;;;;17.29;76.66;98299.38;5010557;28;20042;-81
2022/09/28 00:21:07;;;;;;;5.95;4.15;;;;;;;17.37;76.17;98297.31;5010787;28;20471;-81
2022/09/28 00:23:33;;;;;;;5.38;4.30;;;;;;;17.26;76.36;98289.72;5010698;28;20091;-81
2022/09/28 00:26:04;;;;;;;4.60;4.18;;;;;;;17.23;76.39;98298.19;5007286;28;20037;-81
2022/09/28 00:28:30;;;;;;;5.80;4.57;;;;;;;17.06;77.44;98300.66;5007246;28;20484;-81
2022/09/28 00:30:57;;;;;;;6.35;4.20;;;;;;;16.90;77.97;98292.59;5007273;28;20385;-81
2022/09/28 00:33:23;;;;;;;4.47;4.03;;;;;;;17.09;76.94;98301.84;4990706;28;20116;-81
2022/09/28 00:35:58;;;;;;;5.28;4.55;;;;;;;17.05;76.33;98284.91;4997909;28;20083;-80
2022/09/28 00:38:28;;;;;;;4.47;4.05;;;;;;;16.96;76.19;98290.97;5030119;28;20043;-81
2022/09/28 00:40:54;;;;;;;6.60;3.92;;;;;;;16.89;76.02;98288.16;5031521;28;20048;-81
2022/09/28 00:43:21;;;;;;;4.53;4.00;;;;;;;17.00;75.42;98304.28;5017701;28;20444;-81
2022/09/28 00:46:16;;;;;;;4.18;3.78;;;;;;;17.00;74.96;98287.34;5012754;28;20034;-81
2022/09/28 00:48:53;;;;;;;10.43;4.70;;;;;;;16.90;75.27;98286.97;5013434;28;20507;-81
2022/09/28 00:51:20;;;;;;;6.68;4.55;;;;;;;16.85;75.41;98270.41;5010596;28;20113;-80
2022/09/28 00:53:48;;;;;;;5.35;4.47;;;;;;;16.88;75.56;98272.41;4990760;28;20027;-81
2022/09/28 00:56:17;;;;;;;5.15;3.92;;;;;;;16.82;75.89;98276.88;4996252;28;20020;-81
2022/09/28 00:58:46;;;;;;;4.10;3.70;;;;;;;16.70;76.32;98270.44;5010059;28;20042;-81
2022/09/28 01:01:12;;;;;;;5.47;4.28;;;;;;;16.75;76.10;98274.88;5010070;28;20022;-81
2022/09/28 01:03:44;;;;;;;9.38;4.30;;;;;;;16.74;76.43;98278.09;5010305;28;20040;-81
2022/09/28 01:06:17;;;;;;;7.07;4.53;;;;;;;16.75;75.84;98271.25;5016473;28;20112;-82
2022/09/28 01:08:44;;;;;;;5.43;4.78;;;;;;;16.77;75.83;98274.47;5029834;28;20028;-81
2022/09/28 01:11:10;;;;;;;10.48;4.72;;;;;;;16.75;75.98;98276.88;5026574;28;20022;-81
2022/09/28 01:13:37;;;;;;;9.00;5.25;;;;;;;16.78;75.54;98278.91;5010095;28;20116;-81
2022/09/28 01:16:18;;;;;;;6.32;5.65;;;;;;;16.76;76.26;98284.16;5010607;28;20026;-81
2022/09/28 01:19:21;;;;;;;6.65;4.93;;;;;;;16.42;77.20;98276.94;5011330;28;20098;-81
2022/09/28 01:21:58;;;;;;;6.95;6.18;;;;;;;16.14;78.73;98281.38;4994467;28;20113;-81
2022/09/28 01:24:46;;;;;;;8.20;5.47;;;;;;;15.84;80.51;98282.50;4994304;28;20116;-81
2022/09/28 01:27:22;;;;;;;10.15;6.63;;;;;;;15.63;81.45;98272.81;4995397;28;20101;-81
2022/09/28 01:29:54;;;;;;;6.85;6.10;;;;;;;15.61;81.59;98283.66;4994078;28;20022;-81
2022/09/28 01:32:28;;;;;;;9.40;5.53;;;;;;;15.80;81.23;98276.84;5010487;28;20034;-81
2022/09/28 01:35:17;;;;;;;9.45;5.25;;;;;;;15.97;80.14;98282.97;5018469;28;20029;-81
2022/09/28 01:37:55;;;;;;;6.20;5.60;;;;;;;15.97;79.85;98282.97;5031681;28;20037;-81
2022/09/28 01:40:23;;;;;;;9.73;5.30;;;;;;;16.04;78.83;98288.59;5033425;28;20022;-81
2022/09/28 01:42:58;;;;;;;8.68;5.38;;;;;;;16.07;78.79;98284.19;5033392;28;20036;-81
2022/09/28 01:45:29;;;;;;;8.30;6.47;;;;;;;15.52;81.32;98275.56;5033170;28;20018;-81
2022/09/28 01:48:00;;;;;;;19.83;7.10;;;;;;;15.04;85.03;98275.78;5014818;28;20026;-81
2022/09/28 01:50:29;;;;;;;14.20;7.30;;;;;;;14.76;85.67;98261.16;5013256;28;20080;-81
2022/09/28 01:53:02;;;;;;;10.68;6.65;;;;;;;14.98;86.50;98278.16;5014625;28;20061;-81
2022/09/28 01:55:32;;;;;;;9.10;6.43;;;;;;;14.66;88.04;98273.94;5014612;28;20028;-81
2022/09/28 01:58:09;;;;;;;10.85;7.22;;;;;;;14.23;90.79;98240.69;5032021;28;20038;-81
2022/09/28 02:00:40;;;;;;;10.23;6.78;;;;;;;14.42;90.48;98248.03;5032987;28;20427;-81
2022/09/28 02:03:15;;;;;;;6.22;5.63;;;;;;;14.78;88.84;98272.84;5025642;28;20518;-81
2022/09/28 02:05:51;;;;;;;5.97;5.38;;;;;;;15.06;87.08;98262.09;5014244;28;20060;-82
2022/09/28 02:08:28;;;;;;;6.03;5.43;;;;;;;15.21;85.71;98263.00;5029513;28;20090;-81
2022/09/28 02:11:03;;;;;;;6.60;5.15;;;;;;;15.26;85.66;98277.50;5029250;28;20028;-81
2022/09/28 02:13:38;;;;;;;6.68;5.03;;;;;;;15.35;83.98;98274.31;5012409;28;20119;-81
2022/09/28 02:16:21;;;;;;;7.30;5.50;;;;;;;15.42;83.03;98259.44;5014872;28;20491;-81
2022/09/28 02:18:47;;;;;;;5.63;4.88;;;;;;;15.56;81.91;98272.78;5014220;28;20013;-81
2022/09/28 02:21:21;;;;;;;6.03;5.22;;;;;;;15.09;83.23;98255.72;5012787;28;20033;-82
2022/09/28 02:24:01;;;;;;;11.82;6.82;;;;;;;14.88;85.37;98274.09;5012900;28;20033;-81
2022/09/28 02:26:37;;;;;;;7.45;4.90;;;;;;;14.82;86.55;98272.84;5006623;28;20026;-81
2022/09/28 02:29:03;;;;;;;10.10;5.70;;;;;;;15.14;85.10;98263.75;4993218;28;20031;-81
2022/09/28 02:31:29;;;;;;;14.50;6.40;;;;;;;15.22;83.12;98276.69;4993764;28;20026;-81
2022/09/28 02:33:56;;;;;;;10.85;5.35;;;;;;;15.25;83.24;98256.16;5012367;28;20030;-81
2022/09/28 02:36:24;;;;;;;13.52;6.53;;;;;;;15.61;81.55;98275.19;5013227;28;20025;-81
2022/09/28 02:38:50;;;;;;;18.90;5.30;;;;;;;15.25;81.59;98266.63;5012629;28;20029;-81
2022/09/28 02:41:31;;;;;;;9.25;5.05;;;;;;;15.32;82.18;98285.56;5012492;28;20018;-81
2022/09/28 02:44:24;;;;;;;8.10;5.55;;;;;;;15.41;81.76;98288.81;5012220;28;20021;-81
2022/09/28 02:47:24;;;;;;;9.25;5.38;;;;;;;14.78;84.04;98286.09;5016070;28;20104;-81
2022/09/28 02:50:16;;;;;;;12.90;5.05;;;;;;;14.45;86.65;98283.81;5002891;28;20042;-81
2022/09/28 02:53:28;;;;;;;13.70;5.90;;;;;;;14.57;85.33;98285.53;5012157;28;19917;-81
2022/09/28 02:56:09;;;;;;;9.27;5.93;;;;;;;14.11;86.68;98288.78;4991472;28;20140;-81
2022/09/28 02:58:48;;;;;;;9.80;6.20;;;;;;;13.85;89.00;98282.91;5012729;28;20045;-81
2022/09/28 03:01:25;;;;;;;7.78;5.18;;;;;;;13.97;88.63;98281.00;5012104;28;20040;-82
2022/09/28 03:04:05;;;;;;;7.00;5.20;;;;;;;13.87;87.53;98282.53;5013199;28;20112;-81
2022/09/28 03:06:36;;;;;;;6.72;5.78;;;;;;;13.88;86.98;98275.72;5018413;28;20037;-81
2022/09/28 03:09:08;;;;;;;8.95;7.20;;;;;;;13.75;88.26;98289.22;5033032;28;20029;-81
2022/09/28 03:11:40;;;;;;;7.85;6.95;;;;;;;13.70;89.41;98289.59;5032944;28;20425;-81
2022/09/28 03:14:06;;;;;;;20.23;7.32;;;;;;;13.70;89.45;98287.59;5031687;28;20025;-81
2022/09/28 03:16:31;;;;;;;8.40;6.60;;;;;;;13.44;90.85;98282.88;5025702;28;20454;-81
2022/09/28 03:18:57;;;;;;;7.88;7.03;;;;;;;13.24;92.28;98291.44;5011554;28;20049;-81
2022/09/28 03:21:23;;;;;;;9.82;6.82;;;;;;;13.34;92.35;98284.34;5028127;28;20507;-81
2022/09/28 03:23:48;;;;;;;8.82;7.32;;;;;;;13.41;92.08;98286.44;5013006;28;20036;-81
2022/09/28 03:26:15;;;;;;;9.32;5.65;;;;;;;13.72;90.31;98306.84;5014069;28;20394;-81
2022/09/28 03:28:41;;;;;;;12.02;6.28;;;;;;;13.95;88.61;98298.28;5032682;28;20072;-81
2022/09/28 03:31:07;;;;;;;7.82;7.03;;;;;;;14.02;86.89;98286.28;5025629;28;20045;-81
2022/09/28 03:33:32;;;;;;;7.25;6.40;;;;;;;14.33;85.25;98295.38;5011260;28;20141;-81
2022/09/28 03:35:58;;;;;;;17.55;6.47;;;;;;;14.27;84.57;98297.75;5027868;28;20030;-81
2022/09/28 03:38:23;;;;;;;7.45;6.53;;;;;;;14.45;83.51;98294.28;5011357;28;20038;-81
2022/09/28 03:40:57;;;;;;;7.70;6.57;;;;;;;14.28;82.65;98298.56;5017269;28;20389;-81
2022/09/28 03:43:24;;;;;;;10.90;6.15;;;;;;;14.43;82.73;98313.56;5031596;28;20037;-81
2022/09/28 03:45:54;;;;;;;8.70;6.43;;;;;;;14.36;81.83;98317.13;5030985;28;20040;-81
2022/09/28 03:48:24;;;;;;;10.30;6.75;;;;;;;14.30;82.15;98318.66;5010626;28;20500;-80
2022/09/28 03:50:55;;;;;;;17.65;7.00;;;;;;;14.24;82.35;98329.47;5011046;28;20021;-81
2022/09/28 03:53:20;;;;;;;;;;;;;;;14.21;81.26;98327.44;5011732;28;20042;-81
2022/09/28 03:55:46;;;;;;;8.18;6.70;;;;;;;14.29;81.48;98322.69;5012075;28;19909;-81
2022/09/28 03:58:11;;;;;;;9.85;6.65;;;;;;;14.36;80.87;98316.31;5011929;28;20104;-81
2022/09/28 04:00:37;;;;;;;8.50;7.03;;;;;;;13.65;84.40;98307.59;5012602;28;20041;-81
2022/09/28 04:03:03;;;;;;;14.57;7.70;;;;;;;13.71;86.21;98330.53;5011664;28;20037;-81
2022/09/28 04:05:29;;;;;;;10.02;6.57;;;;;;;13.93;83.78;98334.38;5010900;28;20523;-81
2022/09/28 04:07:57;;;;;;;16.58;6.97;;;;;;;13.77;84.13;98337.44;5012119;28;20034;-81
2022/09/28 04:10:24;;;;;;;11.38;7.97;;;;;;;13.61;85.60;98346.88;5012090;28;20111;-81
2022/09/28 04:12:56;;;;;;;17.55;10.35;;;;;;;13.26;88.08;98330.38;5012139;28;20081;-81
2022/09/28 04:15:24;;;;;;;17.48;13.98;;;;;;;13.12;89.62;98331.81;5010554;28;20080;-81
2022/09/28 04:17:50;;;;;;;20.60;14.90;;;;;;;13.10;90.70;98336.16;5010888;28;20480;-81
2022/09/28 04:20:16;;;;;;;19.10;11.95;;;;;;;13.13;90.42;98341.00;5010707;28;20053;-81
2022/09/28 04:22:43;;;;;;;16.15;7.45;;;;;;;13.09;90.98;98348.59;5010437;28;20065;-81
2022/09/28 04:25:08;;;;;;;10.50;7.13;;;;;;;12.99;88.70;98344.44;5012267;28;20064;-81
2022/09/28 04:30:18;;;;;;;14.25;7.18;;;;;;;12.71;91.03;98340.84;5011106;28;20028;-81
2022/09/28 04:32:47;;;;;;;15.73;7.45;;;;;;;13.07;89.69;98343.34;5011751;28;20034;-81
2022/09/28 04:35:13;;;;;;;10.90;6.68;;;;;;;13.28;87.82;98358.88;5010582;28;20117;-83
2022/09/28 04:37:39;;;;;;;8.23;6.30;;;;;;;13.42;86.51;98355.44;5010169;28;20455;-81
2022/09/28 04:40:05;;;;;;;15.68;7.20;;;;;;;13.41;85.97;98343.41;5011543;28;20029;-81
2022/09/28 04:42:31;;;;;;;14.57;6.65;;;;;;;13.46;85.50;98356.31;5010279;28;20523;-81
2022/09/28 04:44:57;;;;;;;13.50;7.35;;;;;;;13.37;87.53;98361.38;5010305;28;20025;-81
2022/09/28 04:47:24;;;;;;;16.92;8.23;;;;;;;13.63;86.78;98374.59;5009708;28;20034;-81
2022/09/28 04:49:49;;;;;;;21.80;10.85;;;;;;;13.79;86.12;98353.91;5010368;28;20113;-81
2022/09/28 04:52:15;;;;;;;22.55;12.55;;;;;;;14.02;85.20;98367.81;5010269;28;20116;-81
2022/09/28 04:54:40;;;;;;;25.08;10.25;;;;;;;13.89;84.81;98365.28;5014242;28;20033;-81
2022/09/28 04:57:06;;;;;;;21.48;10.00;;;;;;;13.65;85.37;98351.75;5013611;28;20523;-81
2022/09/28 04:59:32;;;;;;;17.05;9.13;;;;;;;13.60;86.48;98367.75;5014202;28;20038;-81
2022/09/28 05:01:57;;;;;;;17.48;8.13;;;;;;;13.73;86.77;98365.50;5014206;28;20033;-81
2022/09/28 05:04:23;;;;;;;25.48;11.02;;;;;;;13.77;87.06;98354.31;5013382;28;20041;-81
2022/09/28 05:06:49;;;;;;;32.83;12.70;;;;;;;14.21;85.63;98371.59;5010126;28;20030;-82
2022/09/28 05:09:14;;;;;;;19.00;8.55;;;;;;;14.29;84.16;98373.31;5010924;28;20034;-82
2022/09/28 05:11:40;;;;;;;18.60;10.38;;;;;;;14.03;84.32;98361.78;4994734;28;20033;-82
2022/09/28 05:14:06;;;;;;;17.83;9.43;;;;;;;13.65;85.83;98358.16;4995773;28;20034;-81
2022/09/28 05:16:32;;;;;;;20.83;14.52;;;;;;;13.74;86.76;98388.75;5013013;28;20739;-81
2022/09/28 05:18:58;;;;;;;17.13;11.52;;;;;;;13.55;88.20;98379.31;5013991;28;20084;-81
2022/09/28 05:21:25;;;;;;;27.52;14.27;;;;;;;13.20;90.90;98361.56;5013823;28;20083;-81
2022/09/28 05:23:51;;;;;;;18.80;10.90;;;;;;;13.12;91.68;98368.28;5015192;28;20025;-81
2022/09/28 05:26:17;;;;;;;24.73;10.40;;;;;;;13.38;91.92;98377.88;5013548;28;20488;-82
2022/09/28 05:28:43;;;;;;;17.90;9.73;;;;;;;13.62;91.33;98389.84;5030123;28;20033;-81
2022/09/28 05:31:09;;;;;;;21.05;10.07;;;;;;;13.72;90.49;98385.53;5013689;28;20029;-82
2022/09/28 05:33:35;;;;;;;18.55;8.30;;;;;;;13.75;91.35;98384.75;5015649;28;20033;-80
2022/09/28 05:36:02;;;;;;;15.52;7.22;;;;;;;13.88;90.09;98376.91;5024690;28;20040;-81
2022/09/28 05:38:28;;;;;;;13.90;7.32;;;;;;;14.01;89.04;98394.31;5015063;28;20029;-81
2022/09/28 05:40:54;;;;;;;12.98;8.05;;;;;;;14.02;90.60;98401.56;5015422;28;20029;-80
2022/09/28 05:43:19;;;;;;;16.38;8.93;;;;;;;14.04;90.27;98385.91;5014838;28;20041;-81
2022/09/28 05:45:45;;;;;;;13.73;7.95;;;;;;;14.22;90.13;98395.72;5013183;28;20060;-81
2022/09/28 05:48:10;;;;;;;12.43;8.95;;;;;;;14.41;90.25;98398.34;5029147;28;20037;-81
2022/09/28 05:50:36;;;;;;;11.18;7.53;;;;;;;14.81;89.15;98409.16;5029711;28;20025;-82
2022/09/28 05:53:04;;;;;;;12.95;6.22;;;;;;;15.08;86.43;98394.88;5013251;28;20128;-81
2022/09/28 05:55:30;;;;;;;11.38;6.63;;;;;;;15.44;84.08;98398.72;5012760;28;20068;-82
2022/09/28 05:58:00;;;;;;;10.13;6.25;;;;;;;15.78;80.97;98406.13;5009589;28;20050;-81
2022/09/28 06:00:27;;;;;;;18.48;7.05;;;;;;;15.60;81.00;98408.06;5010089;28;20420;-81
2022/09/28 06:02:58;;;;;;;11.43;6.38;;;;;;;15.69;82.20;98416.97;4998621;28;20076;-81
2022/09/28 06:05:24;;;;;;;10.25;6.63;;;;;;;15.61;80.26;98429.41;5016757;28;20511;-81
2022/09/28 06:07:50;;;;;;;24.92;7.95;;;;;;;15.38;80.29;98420.00;5014339;28;20030;-81
2022/09/28 06:10:15;;;;;;;7.15;4.82;;;;;;;15.47;81.30;98408.41;5012960;28;20021;-81
2022/09/28 06:12:41;;;;;;;10.68;4.93;;;;;;;15.82;80.36;98404.13;5029580;28;20040;-81
2022/09/28 06:15:07;;;;;;;16.65;6.40;;;;;;;16.13;78.26;98396.19;5011974;28;20497;-82
2022/09/28 06:17:32;;;;;;;13.23;4.97;;;;;;;16.61;76.76;98391.44;5026678;28;20080;-82
2022/09/28 06:19:58;;;;;;;14.27;4.97;;;;;;;16.89;75.83;98383.38;5008040;28;20034;-83
2022/09/28 06:22:23;;;;;;;57.28;8.10;;;;;;;17.31;73.93;98393.00;5029215;28;20084;-82
2022/09/28 06:24:49;;;;;;;17.90;7.57;;;;;;;16.63;75.01;98405.94;5011281;28;20022;-81
2022/09/28 06:27:14;;;;;;;15.25;5.78;;;;;;;16.48;76.69;98410.78;4997598;28;20018;-84
2022/09/28 06:29:40;;;;;;;8.50;5.30;;;;;;;16.37;76.98;98407.16;5009391;28;20053;-82
2022/09/28 06:32:06;;;;;;;12.85;4.30;;;;;;;16.65;75.91;98395.09;5012939;28;20056;-84
2022/09/28 06:34:33;;;;;;;8.73;4.70;;;;;;;16.62;73.84;98393.03;5018422;28;20096;-82
2022/09/28 06:36:59;;;;;;;7.88;4.10;;;;;;;16.88;75.41;98407.19;5013686;28;20045;-84
2022/09/28 06:39:24;;;;;;;7.75;4.40;;;;;;;17.23;73.41;98422.50;5034001;28;20029;-82
2022/09/28 06:41:50;;;;;;;6.22;4.45;;;;;;;16.92;73.84;98400.31;5026656;28;20060;-83
2022/09/28 06:44:15;;;;;;;10.10;4.72;;;;;;;17.18;75.45;98420.09;5012769;28;20029;-83
2022/09/28 06:46:41;;;;;;;12.38;5.85;;;;;;;17.28;74.62;98398.69;5013915;28;20037;-84
2022/09/28 06:49:08;;;;;;;7.85;4.70;;;;;;;17.52;73.06;98423.25;5025583;28;20037;-83
2022/09/28 06:51:35;;;;;;;9.90;4.20;;;;;;;18.01;72.25;98428.34;5033639;28;20048;-82
2022/09/28 06:54:00;;;;;;;10.23;4.60;;;;;;;18.19;70.38;98402.00;5032790;28;20036;-82
2022/09/28 06:56:26;;;;;;;10.75;5.70;;;;;;;18.48;69.44;98424.47;5030562;28;20025;-82
2022/09/28 06:58:52;;;;;;;7.28;4.28;;;;;;;18.36;70.38;98411.59;5012805;28;20087;-84
2022/09/28 07:01:18;;;;;;;9.90;5.72;;;;;;;18.29;72.13;98401.13;5013757;28;20025;-84
2022/09/28 07:03:43;;;;;;;10.82;4.15;;;;;;;18.42;70.92;98395.81;5012064;28;20488;-84
2022/09/28 07:06:10;;;;;;;10.07;4.95;;;;;;;18.11;71.74;98384.25;5012409;28;20022;-83
2022/09/28 07:08:36;;;;;;;16.02;5.25;;;;;;;18.58;70.63;98400.97;5012112;28;20026;-84
2022/09/28 07:11:05;;;;;;;23.35;6.25;;;;;;;18.97;70.21;98398.22;5013362;28;20463;-84
2022/09/28 07:13:30;;;;;;;17.23;4.63;;;;;;;19.09;68.26;98394.91;5028319;28;20410;-86
2022/09/28 07:16:00;;;;;;;6.47;4.03;;;;;;;19.05;67.01;98389.25;5009690;28;20038;-84
2022/09/28 07:18:27;;;;;;;4.70;3.78;;;;;;;18.97;67.05;98378.38;5011799;28;20036;-83
2022/09/28 07:20:58;;;;;;;6.13;4.13;;;;;;;19.33;67.34;98380.91;5028173;28;20491;-82
2022/09/28 07:23:26;;;;;;;10.43;4.35;;;;;;;19.51;67.77;98383.53;5012887;28;20025;-83
2022/09/28 07:25:52;;;;;;;11.50;4.57;;;;;;;19.62;66.29;98384.22;5010191;28;20124;-83
2022/09/28 07:28:19;;;;;;;12.80;4.55;;;;;;;19.90;64.33;98368.06;5011319;28;20021;-83
2022/09/28 07:30:44;;;;;;;4.13;3.35;;;;;;;19.49;63.33;98391.66;5011054;28;20523;-83
2022/09/28 07:33:13;;;;;;;8.13;3.90;;;;;;;19.69;63.40;98371.97;5012022;28;20065;-84
2022/09/28 07:35:40;;;;;;;7.90;4.18;;;;;;;19.98;63.50;98385.81;5011027;28;20408;-84
2022/09/28 07:38:07;;;;;;;9.18;3.75;;;;;;;20.07;62.30;98379.59;5011016;28;20040;-83
2022/09/28 07:43:19;;;;;;;5.07;3.38;;;;;;;20.46;61.80;98388.78;5013355;28;20116;-83
2022/09/28 07:45:51;;;;;;;5.55;3.65;;;;;;;20.42;62.35;98390.91;5012934;28;20029;-83
2022/09/28 07:48:17;;;;;;;5.55;3.25;;;;;;;20.41;61.63;98401.44;5010892;28;20474;-83
2022/09/28 07:50:47;;;;;;;8.65;3.30;;;;;;;20.69;60.34;98388.00;5012516;28;20473;-84
2022/09/28 07:53:12;;;;;;;8.95;3.70;;;;;;;21.13;60.32;98385.28;5011426;28;20037;-83
2022/09/28 07:55:38;;;;;;;4.20;3.38;;;;;;;20.99;59.04;98383.50;5011152;28;20120;-82
2022/09/28 07:58:03;;;;;;;12.30;3.90;;;;;;;20.92;59.82;98368.63;5007039;28;20050;-83
2022/09/28 08:00:30;;;;;;;8.15;3.80;;;;;;;;;;4993230;28;20026;-83
2022/09/28 08:02:58;;;;;;;5.15;3.28;;;;;;;21.43;58.15;98374.19;5008013;28;20516;-84
2022/09/28 08:05:24;;;;;;;6.70;3.25;;;;;;;21.23;57.28;98380.66;5011027;28;20021;-83
2022/09/28 08:07:51;;;;;;;14.45;3.78;;;;;;;21.43;57.71;98388.41;5010983;28;20049;-83
2022/09/28 08:10:18;;;;;;;4.65;2.75;;;;;;;21.87;56.12;98394.84;5012950;28;20411;-84
2022/09/28 08:12:45;;;;;;;4.00;3.20;;;;;;;21.76;54.68;98402.81;5011082;28;20046;-84
2022/09/28 08:15:11;;;;;;;4.57;3.40;;;;;;;21.88;53.91;98395.66;5010981;28;20506;-83
2022/09/28 08:17:37;;;;;;;7.47;3.10;;;;;;;22.79;57.45;98403.00;5011122;28;20029;-85
2022/09/28 08:22:47;;;;;;;30.90;16.00;;;;;;;24.09;53.46;98395.09;5004574;28;20040;-83
2022/09/28 08:25:13;;;;;;;4.05;3.08;;;;;;;23.32;49.55;98410.69;5010446;28;20031;-82
2022/09/28 08:27:38;;;;;;;5.88;3.47;;;;;;;23.94;48.80;98395.50;5013686;28;20076;-83
2022/09/28 08:30:04;;;;;;;7.32;2.80;;;;;;;23.78;49.76;98402.06;5011732;28;20026;-84
2022/09/28 08:32:31;;;;;;;8.25;4.70;;;;;;;24.15;48.34;98413.28;5010376;28;20508;-83
2022/09/28 08:34:57;;;;;;;7.00;3.42;;;;;;;24.20;48.31;98406.22;5010330;28;20056;-83
2022/09/28 08:37:22;;;;;;;18.85;8.43;;;;;;;24.17;49.75;98402.19;5010984;28;20053;-84
2022/09/28 08:39:48;;;;;;;16.13;3.90;;;;;;;23.98;49.30;98398.25;5017923;28;20033;-84
2022/09/28 08:42:33;;;;;;;8.68;4.22;;;;;;;24.14;49.85;98414.53;5009561;28;20025;-84
2022/09/28 08:45:06;;;;;;;9.52;3.33;;;;;;;24.51;48.69;98408.50;4994203;28;20042;-84
2022/09/28 08:51:14;;;;;;;22.73;7.72;;;;;;;24.89;44.69;98399.13;5010097;28;20105;-83
2022/09/28 08:54:02;;;;;;;5.15;2.58;;;;;;;24.68;44.30;98406.34;5009746;28;20116;-83
2022/09/28 08:56:40;;;;;;;6.65;2.38;;;;;;;25.26;47.36;98395.06;5028864;28;20062;-86
2022/09/28 08:59:13;;;;;;;8.40;6.28;;;;;;;26.00;41.60;98394.88;5010107;28;20483;-85
2022/09/28 09:01:49;;;;;;;8.60;3.58;;;;;;;26.37;40.24;98389.41;5010248;28;20084;-84
2022/09/28 09:04:15;;;;;;;13.05;2.55;;;;;;;26.20;40.25;98381.03;5006106;28;20073;-84
2022/09/28 09:06:59;;;;;;;3.78;2.38;;;;;;;26.26;40.11;98389.00;5011526;28;20052;-84
2022/09/28 09:09:53;;;;;;;2.13;2.00;;;;;;;26.48;39.43;98392.63;4992538;28;20081;-83
2022/09/28 09:12:22;;;;;;;3.97;2.80;;;;;;;26.27;38.78;98391.41;5011167;28;20547;-83
2022/09/28 09:15:29;;;;;;;2.58;1.92;;;;;;;26.05;37.23;98395.09;5006336;28;20022;-85
2022/09/28 09:18:21;;;;;;;2.13;1.45;;;;;;;26.09;37.22;98392.09;4988910;28;20041;-84
2022/09/28 09:20:52;;;;;;;4.03;1.40;;;;;;;26.21;36.79;98396.16;5001496;28;20045;-84
2022/09/28 09:23:33;;;;;;;2.70;1.85;;;;;;;26.14;37.40;98382.88;4994446;28;20068;-83
2022/09/28 09:26:10;;;;;;;2.70;2.22;;;;;;;26.20;38.39;98385.97;4991694;28;20050;-83
2022/09/28 09:28:47;;;;;;;2.58;1.83;;;;;;;26.35;37.72;98386.22;4995768;28;20037;-83
2022/09/28 09:31:43;;;;;;;6.88;3.05;;;;;;;26.17;37.55;98387.66;5006861;28;20022;-83
2022/09/28 09:34:41;;;;;;;2.80;1.83;;;;;;;26.30;37.60;98384.75;5013632;28;20022;-83
2022/09/28 09:37:27;;;;;;;6.75;2.00;;;;;;;25.54;37.50;98381.03;4986770;28;20034;-85
2022/09/28 09:39:58;;;;;;;3.17;1.83;;;;;;;25.48;37.72;98389.41;5021266;28;20022;-83
2022/09/28 09:42:36;;;;;;;3.72;1.70;;;;;;;25.97;37.83;98379.44;5011112;28;20077;-82
2022/09/28 09:45:10;;;;;;;3.40;1.75;;;;;;;26.06;36.93;98379.50;5001790;28;20420;-82
2022/09/28 09:47:53;;;;;;;2.70;1.88;;;;;;;26.09;37.34;98369.16;5026295;28;20093;-84
2022/09/28 09:50:49;;;;;;;6.55;3.15;;;;;;;26.22;37.38;98371.97;5007755;28;20548;-84
2022/09/28 09:53:58;;;;;;;5.25;1.60;;;;;;;26.30;37.19;98369.59;5012798;28;20036;-83
2022/09/28 09:56:44;;;;;;;8.68;2.35;;;;;;;26.33;36.89;98371.56;5015069;28;20512;-83
2022/09/28 09:59:22;;;;;;;2.58;2.10;;;;;;;26.27;37.23;98367.69;5011931;28;20061;-83
2022/09/28 10:01:49;;;;;;;4.68;1.95;;;;;;;25.73;38.25;98364.81;5012961;28;20558;-83
2022/09/28 10:04:31;;;;;;;4.68;1.92;;;;;;;26.10;37.70;98365.03;5013650;28;20034;-86
2022/09/28 10:07:02;;;;;;;7.80;2.80;;;;;;;26.55;36.03;98364.97;5028988;28;20084;-83
2022/09/28 10:09:38;;;;;;;6.90;1.67;;;;;;;26.72;35.77;98369.16;5015263;28;20021;-83
2022/09/28 10:12:10;;;;;;;4.07;2.08;;;;;;;26.58;35.62;98359.06;5005408;28;20041;-83
2022/09/28 10:14:36;;;;;;;10.13;3.95;;;;;;;26.59;35.80;98351.28;5004663;28;20141;-82
2022/09/28 10:17:02;;;;;;;10.60;5.05;;;;;;;26.55;36.41;98350.63;5014848;28;20057;-83
2022/09/28 10:19:33;;;;;;;6.93;2.35;;;;;;;26.12;37.26;98342.44;5012597;28;20080;-83
2022/09/28 10:22:03;;;;;;;8.73;4.28;;;;;;;26.49;37.00;98342.63;5011452;28;20033;-83
2022/09/28 10:24:44;;;;;;;9.45;3.50;;;;;;;26.93;36.59;98338.00;5013964;28;20026;-83
2022/09/28 10:27:25;;;;;;;5.97;3.17;;;;;;;26.89;37.03;98331.59;5004832;28;20030;-83
2022/09/28 10:30:08;;;;;;;3.28;2.05;;;;;;;26.60;38.34;98332.78;5017744;28;20022;-83
2022/09/28 10:32:44;;;;;;;5.50;1.95;;;;;;;26.71;37.15;98326.59;5012666;28;20069;-83
2022/09/28 10:35:19;;;;;;;9.20;3.88;;;;;;;26.76;37.47;98320.25;5012775;28;20030;-83
2022/09/28 10:37:54;;;;;;;3.05;1.90;;;;;;;27.13;37.51;98322.41;5012707;28;20025;-83
2022/09/28 10:40:42;;;;;;;6.28;2.28;;;;;;;27.19;37.54;98312.66;5026462;28;20088;-83
2022/09/28 10:43:26;;;;;;;7.13;2.45;;;;;;;27.35;38.21;98302.16;5002543;28;20028;-84
2022/09/28 10:46:09;;;;;;;10.27;2.50;;;;;;;27.52;36.38;98298.94;5004266;28;20419;-82
2022/09/28 10:48:49;;;;;;;4.60;2.58;;;;;;;27.54;35.98;98294.34;5013488;28;20037;-83
2022/09/28 10:51:16;;;;;;;6.20;2.28;;;;;;;27.56;36.05;98291.78;5012927;28;20014;-83
2022/09/28 10:53:58;;;;;;;3.30;1.98;;;;;;;27.33;37.05;98302.63;5013711;28;20041;-83
2022/09/28 10:56:28;;;;;;;7.57;2.03;;;;;;;27.11;36.83;98284.78;5009437;28;20025;-84
2022/09/28 10:58:54;;;;;;;6.40;2.15;;;;;;;27.31;35.36;98298.63;4999983;28;20472;-83
2022/09/28 11:01:25;;;;;;;7.22;2.60;;;;;;;27.42;35.14;98295.31;4997435;28;20033;-84
2022/09/28 11:03:54;;;;;;;3.13;2.13;;;;;;;26.84;35.98;98300.66;5013643;28;20096;-83
2022/09/28 11:06:30;;;;;;;4.53;2.70;;;;;;;27.32;35.76;98291.63;5012907;28;20025;-83
2022/09/28 11:09:04;;;;;;;2.45;1.85;;;;;;;27.54;34.59;98291.50;5009912;28;20030;-83
2022/09/28 11:11:38;;;;;;;8.38;3.22;;;;;;;27.23;35.58;98274.44;5026644;28;20036;-84
2022/09/28 11:14:04;;;;;;;2.38;1.80;;;;;;;27.22;37.26;98281.44;5013386;28;20033;-84
2022/09/28 11:16:33;;;;;;;5.47;2.28;;;;;;;27.44;37.25;98264.03;5011549;28;20096;-84
2022/09/28 11:19:28;;;;;;;5.88;1.95;;;;;;;27.68;37.06;98274.88;5009197;28;20080;-83
2022/09/28 11:21:54;;;;;;;8.48;2.53;;;;;;;27.76;35.04;98270.38;5011331;28;22512;-84
2022/09/28 11:24:24;;;;;;;4.63;2.55;;;;;;;27.86;34.30;98268.28;5027974;28;20040;-82
2022/09/28 11:26:53;;;;;;;6.70;2.53;;;;;;;27.75;33.63;98263.03;5023394;28;20026;-83
2022/09/28 11:29:21;;;;;;;6.40;2.57;;;;;;;27.83;33.49;98252.81;5014016;28;20029;-84
2022/09/28 11:31:47;;;;;;;2.25;2.05;;;;;;;27.45;35.72;98254.16;5005689;28;20153;-84
2022/09/28 11:34:23;;;;;;;3.42;1.75;;;;;;;27.02;36.67;98251.94;5011492;28;20525;-83
2022/09/28 11:37:13;;;;;;;7.35;2.38;;;;;;;26.70;37.15;98250.44;5005530;28;20030;-82
2022/09/28 11:40:04;;;;;;;5.65;2.33;;;;;;;26.52;37.34;98240.56;5012675;28;20033;-83
2022/09/28 11:42:50;;;;;;;3.53;2.00;;;;;;;26.36;37.31;98235.91;5013060;28;20030;-83
2022/09/28 11:46:03;;;;;;;4.40;1.98;;;;;;;26.59;36.73;98239.47;5010428;28;20041;-83
2022/09/28 11:49:02;;;;;;;5.60;1.85;;;;;;;26.73;34.74;98238.84;4988929;28;20099;-83
2022/09/28 11:51:31;;;;;;;3.88;1.85;;;;;;;27.04;35.16;98237.94;5010228;28;20133;-83
2022/09/28 11:54:13;;;;;;;4.63;1.90;;;;;;;27.21;34.64;98240.47;4998363;28;20034;-83
2022/09/28 11:56:42;;;;;;;5.03;2.03;;;;;;;27.30;34.16;98228.16;5012067;28;20033;-85
2022/09/28 11:59:22;;;;;;;7.00;1.88;;;;;;;27.32;33.85;98235.03;5012504;28;20038;-84
2022/09/28 12:02:02;;;;;;;6.45;1.50;;;;;;;27.35;33.22;98221.00;5010126;28;20029;-83
2022/09/28 12:04:38;;;;;;;2.35;1.77;;;;;;;27.26;32.94;98216.84;5008360;28;20511;-83